sensor_id;sensor_type;location;lat;lon;timestamp;temperature;humidity
55785;DHT22;41709;52.536;5.688;2023-05-29T00:02:03;9.90;86.60
55785;DHT22;41709;52.536;5.688;2023-05-29T00:04:29;9.90;86.70
55785;DHT22;41709;52.536;5.688;2023-05-29T00:06:54;9.80;86.50
55785;DHT22;41709;52.536;5.688;2023-05-29T00:09:20;9.80;86.50
55785;DHT22;41709;52.536;5.688;2023-05-29T00:11:46;9.90;86.60
55785;DHT22;41709;52.536;5.688;2023-05-29T00:14:16;9.90;86.50
55785;DHT22;41709;52.536;5.688;2023-05-29T00:16:45;9.80;86.50
55785;DHT22;41709;52.536;5.688;2023-05-29T00:19:12;9.80;86.60
55785;DHT22;41709;52.536;5.688;2023-05-29T00:21:39;9.70;86.70
55785;DHT22;41709;52.536;5.688;2023-05-29T00:24:05;9.70;86.70
55785;DHT22;41709;52.536;5.688;2023-05-29T00:26:30;9.80;86.90
55785;DHT22;41709;52.536;5.688;2023-05-29T00:28:56;9.70;86.70
55785;DHT22;41709;52.536;5.688;2023-05-29T00:31:21;9.70;86.70
55785;DHT22;41709;52.536;5.688;2023-05-29T00:33:47;9.60;86.80
55785;DHT22;41709;52.536;5.688;2023-05-29T00:36:13;9.60;87.00
55785;DHT22;41709;52.536;5.688;2023-05-29T00:38:38;9.60;87.00
55785;DHT22;41709;52.536;5.688;2023-05-29T00:41:05;9.60;87.20
55785;DHT22;41709;52.536;5.688;2023-05-29T00:43:30;9.60;87.30
55785;DHT22;41709;52.536;5.688;2023-05-29T00:45:56;9.50;87.10
55785;DHT22;41709;52.536;5.688;2023-05-29T00:48:22;9.60;87.10
55785;DHT22;41709;52.536;5.688;2023-05-29T00:50:47;9.60;87.10
55785;DHT22;41709;52.536;5.688;2023-05-29T00:53:14;9.60;87.10
55785;DHT22;41709;52.536;5.688;2023-05-29T00:55:39;9.50;87.30
55785;DHT22;41709;52.536;5.688;2023-05-29T00:58:05;9.40;87.50
55785;DHT22;41709;52.536;5.688;2023-05-29T01:00:31;9.40;87.60
55785;DHT22;41709;52.536;5.688;2023-05-29T01:02:58;9.40;87.60
55785;DHT22;41709;52.536;5.688;2023-05-29T01:05:24;9.40;87.70
55785;DHT22;41709;52.536;5.688;2023-05-29T01:07:49;9.40;87.70
55785;DHT22;41709;52.536;5.688;2023-05-29T01:10:16;9.40;87.70
55785;DHT22;41709;52.536;5.688;2023-05-29T01:13:00;9.40;87.60
55785;DHT22;41709;52.536;5.688;2023-05-29T01:18:44;9.40;87.90
55785;DHT22;41709;52.536;5.688;2023-05-29T01:24:05;9.30;87.90
55785;DHT22;41709;52.536;5.688;2023-05-29T01:29:14;9.20;88.00
55785;DHT22;41709;52.536;5.688;2023-05-29T01:31:42;9.20;88.10
55785;DHT22;41709;52.536;5.688;2023-05-29T01:34:08;9.20;88.20
55785;DHT22;41709;52.536;5.688;2023-05-29T01:36:33;9.10;88.30
55785;DHT22;41709;52.536;5.688;2023-05-29T01:39:00;9.10;88.40
55785;DHT22;41709;52.536;5.688;2023-05-29T01:41:26;9.10;88.50
55785;DHT22;41709;52.536;5.688;2023-05-29T01:43:53;9.10;88.30
55785;DHT22;41709;52.536;5.688;2023-05-29T01:46:20;9.10;88.30
55785;DHT22;41709;52.536;5.688;2023-05-29T01:48:46;9.10;88.40
55785;DHT22;41709;52.536;5.688;2023-05-29T01:51:12;9.10;88.50
55785;DHT22;41709;52.536;5.688;2023-05-29T01:53:39;9.10;88.40
55785;DHT22;41709;52.536;5.688;2023-05-29T01:56:05;9.00;88.50
55785;DHT22;41709;52.536;5.688;2023-05-29T01:58:32;9.00;88.60
55785;DHT22;41709;52.536;5.688;2023-05-29T02:01:00;9.00;88.60
55785;DHT22;41709;52.536;5.688;2023-05-29T02:03:26;9.00;88.40
55785;DHT22;41709;52.536;5.688;2023-05-29T02:05:59;9.00;88.40
55785;DHT22;41709;52.536;5.688;2023-05-29T02:08:25;9.00;88.50
55785;DHT22;41709;52.536;5.688;2023-05-29T02:10:50;9.00;88.40
55785;DHT22;41709;52.536;5.688;2023-05-29T02:13:16;9.00;88.50
55785;DHT22;41709;52.536;5.688;2023-05-29T02:15:43;8.90;88.40
55785;DHT22;41709;52.536;5.688;2023-05-29T02:18:11;8.90;88.50
55785;DHT22;41709;52.536;5.688;2023-05-29T02:20:40;8.90;88.40
55785;DHT22;41709;52.536;5.688;2023-05-29T02:23:05;8.90;88.40
55785;DHT22;41709;52.536;5.688;2023-05-29T02:25:31;8.90;88.40
55785;DHT22;41709;52.536;5.688;2023-05-29T02:27:56;8.90;88.40
55785;DHT22;41709;52.536;5.688;2023-05-29T02:30:22;8.90;88.30
55785;DHT22;41709;52.536;5.688;2023-05-29T02:32:47;8.90;88.40
55785;DHT22;41709;52.536;5.688;2023-05-29T02:35:13;8.90;88.30
55785;DHT22;41709;52.536;5.688;2023-05-29T02:37:41;8.90;88.30
55785;DHT22;41709;52.536;5.688;2023-05-29T02:40:07;8.90;88.20
55785;DHT22;41709;52.536;5.688;2023-05-29T02:42:34;8.90;88.20
55785;DHT22;41709;52.536;5.688;2023-05-29T02:44:59;9.00;88.20
55785;DHT22;41709;52.536;5.688;2023-05-29T02:47:25;9.00;88.10
55785;DHT22;41709;52.536;5.688;2023-05-29T02:49:51;9.00;88.00
55785;DHT22;41709;52.536;5.688;2023-05-29T02:52:16;9.00;87.90
55785;DHT22;41709;52.536;5.688;2023-05-29T02:54:42;9.00;87.90
55785;DHT22;41709;52.536;5.688;2023-05-29T02:57:07;8.90;87.80
55785;DHT22;41709;52.536;5.688;2023-05-29T02:59:33;8.90;87.90
55785;DHT22;41709;52.536;5.688;2023-05-29T03:01:59;8.90;88.10
55785;DHT22;41709;52.536;5.688;2023-05-29T03:04:24;8.90;88.10
55785;DHT22;41709;52.536;5.688;2023-05-29T03:06:50;8.80;88.10
55785;DHT22;41709;52.536;5.688;2023-05-29T03:09:18;8.80;88.10
55785;DHT22;41709;52.536;5.688;2023-05-29T03:11:43;8.80;88.10
55785;DHT22;41709;52.536;5.688;2023-05-29T03:14:10;8.80;88.30
55785;DHT22;41709;52.536;5.688;2023-05-29T03:16:35;8.80;88.30
55785;DHT22;41709;52.536;5.688;2023-05-29T03:19:01;8.80;88.30
55785;DHT22;41709;52.536;5.688;2023-05-29T03:21:27;8.80;88.30
55785;DHT22;41709;52.536;5.688;2023-05-29T03:23:52;8.80;88.30
55785;DHT22;41709;52.536;5.688;2023-05-29T03:26:18;8.70;88.30
55785;DHT22;41709;52.536;5.688;2023-05-29T03:28:43;8.80;88.40
55785;DHT22;41709;52.536;5.688;2023-05-29T03:31:09;8.70;88.30
55785;DHT22;41709;52.536;5.688;2023-05-29T03:33:36;8.80;88.30
55785;DHT22;41709;52.536;5.688;2023-05-29T03:36:02;8.80;88.30
55785;DHT22;41709;52.536;5.688;2023-05-29T03:38:27;8.70;88.30
55785;DHT22;41709;52.536;5.688;2023-05-29T03:40:54;8.80;88.30
55785;DHT22;41709;52.536;5.688;2023-05-29T03:43:19;8.80;88.30
55785;DHT22;41709;52.536;5.688;2023-05-29T03:45:45;8.80;88.20
55785;DHT22;41709;52.536;5.688;2023-05-29T03:48:10;8.80;88.20
55785;DHT22;41709;52.536;5.688;2023-05-29T03:50:36;8.80;88.20
55785;DHT22;41709;52.536;5.688;2023-05-29T03:53:01;8.80;88.30
55785;DHT22;41709;52.536;5.688;2023-05-29T03:55:27;8.80;88.30
55785;DHT22;41709;52.536;5.688;2023-05-29T03:57:53;8.80;88.30
55785;DHT22;41709;52.536;5.688;2023-05-29T04:00:19;8.80;88.40
55785;DHT22;41709;52.536;5.688;2023-05-29T04:02:45;8.80;88.50
55785;DHT22;41709;52.536;5.688;2023-05-29T04:05:11;8.90;88.80
55785;DHT22;41709;52.536;5.688;2023-05-29T04:07:38;8.90;88.60
55785;DHT22;41709;52.536;5.688;2023-05-29T04:10:07;8.90;88.50
55785;DHT22;41709;52.536;5.688;2023-05-29T04:12:33;9.00;88.50
55785;DHT22;41709;52.536;5.688;2023-05-29T04:14:59;9.00;88.40
55785;DHT22;41709;52.536;5.688;2023-05-29T04:17:24;8.90;88.30
55785;DHT22;41709;52.536;5.688;2023-05-29T04:19:50;9.00;88.30
55785;DHT22;41709;52.536;5.688;2023-05-29T04:22:16;9.00;88.40
55785;DHT22;41709;52.536;5.688;2023-05-29T04:24:41;9.00;88.50
55785;DHT22;41709;52.536;5.688;2023-05-29T04:27:08;9.00;88.50
55785;DHT22;41709;52.536;5.688;2023-05-29T04:29:34;9.00;88.50
55785;DHT22;41709;52.536;5.688;2023-05-29T04:32:00;9.00;88.60
55785;DHT22;41709;52.536;5.688;2023-05-29T04:34:29;9.00;88.60
55785;DHT22;41709;52.536;5.688;2023-05-29T04:36:56;9.00;88.60
55785;DHT22;41709;52.536;5.688;2023-05-29T04:39:22;9.00;88.80
55785;DHT22;41709;52.536;5.688;2023-05-29T04:41:48;9.00;88.60
55785;DHT22;41709;52.536;5.688;2023-05-29T04:44:13;9.10;88.50
55785;DHT22;41709;52.536;5.688;2023-05-29T04:46:40;9.00;88.50
55785;DHT22;41709;52.536;5.688;2023-05-29T04:49:05;9.10;88.60
55785;DHT22;41709;52.536;5.688;2023-05-29T04:51:31;9.10;88.60
55785;DHT22;41709;52.536;5.688;2023-05-29T04:53:57;9.10;88.20
55785;DHT22;41709;52.536;5.688;2023-05-29T04:56:22;9.20;88.20
55785;DHT22;41709;52.536;5.688;2023-05-29T04:58:48;9.20;88.00
55785;DHT22;41709;52.536;5.688;2023-05-29T05:01:14;9.20;88.00
55785;DHT22;41709;52.536;5.688;2023-05-29T05:03:42;9.20;87.80
55785;DHT22;41709;52.536;5.688;2023-05-29T05:06:09;9.20;87.70
55785;DHT22;41709;52.536;5.688;2023-05-29T05:08:34;9.30;87.60
55785;DHT22;41709;52.536;5.688;2023-05-29T05:11:01;9.30;88.20
55785;DHT22;41709;52.536;5.688;2023-05-29T05:13:27;9.40;87.30
55785;DHT22;41709;52.536;5.688;2023-05-29T05:15:53;9.40;86.90
55785;DHT22;41709;52.536;5.688;2023-05-29T05:18:19;9.50;86.90
55785;DHT22;41709;52.536;5.688;2023-05-29T05:20:45;9.50;86.00
55785;DHT22;41709;52.536;5.688;2023-05-29T05:23:11;9.50;86.10
55785;DHT22;41709;52.536;5.688;2023-05-29T05:25:37;9.50;85.50
55785;DHT22;41709;52.536;5.688;2023-05-29T05:28:04;9.50;85.60
55785;DHT22;41709;52.536;5.688;2023-05-29T05:30:30;9.60;85.50
55785;DHT22;41709;52.536;5.688;2023-05-29T05:32:56;9.60;85.40
55785;DHT22;41709;52.536;5.688;2023-05-29T05:35:21;9.70;85.40
55785;DHT22;41709;52.536;5.688;2023-05-29T05:37:47;9.70;85.10
55785;DHT22;41709;52.536;5.688;2023-05-29T05:40:13;9.70;84.50
55785;DHT22;41709;52.536;5.688;2023-05-29T05:42:38;9.80;84.20
55785;DHT22;41709;52.536;5.688;2023-05-29T05:45:05;9.80;84.00
55785;DHT22;41709;52.536;5.688;2023-05-29T05:47:32;9.90;83.70
55785;DHT22;41709;52.536;5.688;2023-05-29T05:49:57;9.90;83.50
55785;DHT22;41709;52.536;5.688;2023-05-29T05:52:23;9.90;83.60
55785;DHT22;41709;52.536;5.688;2023-05-29T05:54:49;10.00;83.10
55785;DHT22;41709;52.536;5.688;2023-05-29T05:57:15;10.00;83.60
55785;DHT22;41709;52.536;5.688;2023-05-29T05:59:41;10.10;82.50
55785;DHT22;41709;52.536;5.688;2023-05-29T06:02:06;10.20;82.30
55785;DHT22;41709;52.536;5.688;2023-05-29T06:04:32;10.20;81.30
55785;DHT22;41709;52.536;5.688;2023-05-29T06:06:57;10.20;81.10
55785;DHT22;41709;52.536;5.688;2023-05-29T06:09:23;10.30;80.80
55785;DHT22;41709;52.536;5.688;2023-05-29T06:11:50;10.40;80.80
55785;DHT22;41709;52.536;5.688;2023-05-29T06:14:16;10.50;79.30
55785;DHT22;41709;52.536;5.688;2023-05-29T06:16:42;10.60;78.50
55785;DHT22;41709;52.536;5.688;2023-05-29T06:19:08;10.70;78.60
55785;DHT22;41709;52.536;5.688;2023-05-29T06:21:34;10.80;78.50
55785;DHT22;41709;52.536;5.688;2023-05-29T06:23:59;10.80;77.60
55785;DHT22;41709;52.536;5.688;2023-05-29T06:26:25;10.70;77.20
55785;DHT22;41709;52.536;5.688;2023-05-29T06:28:52;10.70;77.30
55785;DHT22;41709;52.536;5.688;2023-05-29T06:31:17;10.80;78.00
55785;DHT22;41709;52.536;5.688;2023-05-29T06:33:44;10.80;77.40
55785;DHT22;41709;52.536;5.688;2023-05-29T06:36:09;11.00;77.30
55785;DHT22;41709;52.536;5.688;2023-05-29T06:38:36;11.00;77.10
55785;DHT22;41709;52.536;5.688;2023-05-29T06:41:01;11.10;76.30
55785;DHT22;41709;52.536;5.688;2023-05-29T06:43:28;11.20;76.40
55785;DHT22;41709;52.536;5.688;2023-05-29T06:45:54;11.20;73.90
55785;DHT22;41709;52.536;5.688;2023-05-29T06:48:20;11.20;74.80
55785;DHT22;41709;52.536;5.688;2023-05-29T06:50:47;11.20;74.10
55785;DHT22;41709;52.536;5.688;2023-05-29T06:53:13;11.20;74.60
55785;DHT22;41709;52.536;5.688;2023-05-29T06:55:38;11.20;74.70
55785;DHT22;41709;52.536;5.688;2023-05-29T06:58:06;11.40;75.40
55785;DHT22;41709;52.536;5.688;2023-05-29T07:00:32;11.40;73.60
55785;DHT22;41709;52.536;5.688;2023-05-29T07:02:57;11.40;73.20
55785;DHT22;41709;52.536;5.688;2023-05-29T07:05:23;11.50;72.90
55785;DHT22;41709;52.536;5.688;2023-05-29T07:07:48;11.50;72.90
55785;DHT22;41709;52.536;5.688;2023-05-29T07:10:14;11.60;73.20
55785;DHT22;41709;52.536;5.688;2023-05-29T07:12:40;11.60;72.90
55785;DHT22;41709;52.536;5.688;2023-05-29T07:15:05;11.50;73.10
55785;DHT22;41709;52.536;5.688;2023-05-29T07:17:31;11.50;72.50
55785;DHT22;41709;52.536;5.688;2023-05-29T07:19:57;11.50;73.10
55785;DHT22;41709;52.536;5.688;2023-05-29T07:22:22;11.50;73.10
55785;DHT22;41709;52.536;5.688;2023-05-29T07:24:48;11.50;72.60
55785;DHT22;41709;52.536;5.688;2023-05-29T07:27:13;11.30;72.80
55785;DHT22;41709;52.536;5.688;2023-05-29T07:29:39;11.40;73.20
55785;DHT22;41709;52.536;5.688;2023-05-29T07:32:05;11.40;73.10
55785;DHT22;41709;52.536;5.688;2023-05-29T07:34:30;11.50;72.90
55785;DHT22;41709;52.536;5.688;2023-05-29T07:37:01;11.50;73.60
55785;DHT22;41709;52.536;5.688;2023-05-29T07:39:28;11.60;72.80
55785;DHT22;41709;52.536;5.688;2023-05-29T07:41:53;11.70;73.10
55785;DHT22;41709;52.536;5.688;2023-05-29T07:44:19;11.80;72.30
55785;DHT22;41709;52.536;5.688;2023-05-29T07:46:45;11.80;71.20
55785;DHT22;41709;52.536;5.688;2023-05-29T07:49:11;11.90;71.00
55785;DHT22;41709;52.536;5.688;2023-05-29T07:51:36;11.90;70.60
55785;DHT22;41709;52.536;5.688;2023-05-29T07:54:03;11.90;71.50
55785;DHT22;41709;52.536;5.688;2023-05-29T07:56:28;12.00;71.30
55785;DHT22;41709;52.536;5.688;2023-05-29T07:58:54;12.00;70.70
55785;DHT22;41709;52.536;5.688;2023-05-29T08:01:22;12.00;70.80
55785;DHT22;41709;52.536;5.688;2023-05-29T08:03:47;12.00;70.80
55785;DHT22;41709;52.536;5.688;2023-05-29T08:06:13;12.10;71.10
55785;DHT22;41709;52.536;5.688;2023-05-29T08:08:38;12.10;71.30
55785;DHT22;41709;52.536;5.688;2023-05-29T08:11:04;12.20;70.90
55785;DHT22;41709;52.536;5.688;2023-05-29T08:13:31;12.20;71.60
55785;DHT22;41709;52.536;5.688;2023-05-29T08:15:56;12.30;71.20
55785;DHT22;41709;52.536;5.688;2023-05-29T08:18:25;12.30;70.30
55785;DHT22;41709;52.536;5.688;2023-05-29T08:20:50;12.40;70.10
55785;DHT22;41709;52.536;5.688;2023-05-29T08:23:16;12.40;71.10
55785;DHT22;41709;52.536;5.688;2023-05-29T08:25:42;12.30;70.30
55785;DHT22;41709;52.536;5.688;2023-05-29T08:28:07;12.30;69.70
55785;DHT22;41709;52.536;5.688;2023-05-29T08:30:33;12.40;70.10
55785;DHT22;41709;52.536;5.688;2023-05-29T08:32:58;12.40;69.20
55785;DHT22;41709;52.536;5.688;2023-05-29T08:35:24;12.40;69.10
55785;DHT22;41709;52.536;5.688;2023-05-29T08:37:49;12.40;69.30
55785;DHT22;41709;52.536;5.688;2023-05-29T08:40:15;12.40;68.90
55785;DHT22;41709;52.536;5.688;2023-05-29T08:42:56;12.40;68.60
55785;DHT22;41709;52.536;5.688;2023-05-29T08:45:22;12.40;67.60
55785;DHT22;41709;52.536;5.688;2023-05-29T08:47:52;12.50;68.30
55785;DHT22;41709;52.536;5.688;2023-05-29T08:50:22;12.50;68.00
55785;DHT22;41709;52.536;5.688;2023-05-29T08:52:49;12.40;68.30
55785;DHT22;41709;52.536;5.688;2023-05-29T08:55:15;12.40;69.10
55785;DHT22;41709;52.536;5.688;2023-05-29T08:57:41;12.30;68.20
55785;DHT22;41709;52.536;5.688;2023-05-29T09:00:09;12.40;69.20
55785;DHT22;41709;52.536;5.688;2023-05-29T09:02:41;12.40;69.40
55785;DHT22;41709;52.536;5.688;2023-05-29T09:05:07;12.40;69.80
55785;DHT22;41709;52.536;5.688;2023-05-29T09:07:33;12.50;69.70
55785;DHT22;41709;52.536;5.688;2023-05-29T09:09:59;12.60;69.20
55785;DHT22;41709;52.536;5.688;2023-05-29T09:12:26;12.60;69.50
55785;DHT22;41709;52.536;5.688;2023-05-29T09:14:52;12.70;69.00
55785;DHT22;41709;52.536;5.688;2023-05-29T09:17:17;12.90;69.60
55785;DHT22;41709;52.536;5.688;2023-05-29T09:19:43;13.00;67.40
55785;DHT22;41709;52.536;5.688;2023-05-29T09:22:13;12.90;66.80
55785;DHT22;41709;52.536;5.688;2023-05-29T09:24:45;13.00;67.00
55785;DHT22;41709;52.536;5.688;2023-05-29T09:27:11;13.00;67.00
55785;DHT22;41709;52.536;5.688;2023-05-29T09:29:42;13.00;67.20
55785;DHT22;41709;52.536;5.688;2023-05-29T09:32:09;13.10;68.20
55785;DHT22;41709;52.536;5.688;2023-05-29T09:34:35;13.20;68.00
55785;DHT22;41709;52.536;5.688;2023-05-29T09:37:02;13.10;67.40
55785;DHT22;41709;52.536;5.688;2023-05-29T09:39:54;13.20;67.30
55785;DHT22;41709;52.536;5.688;2023-05-29T09:42:19;13.20;67.40
55785;DHT22;41709;52.536;5.688;2023-05-29T09:44:48;13.30;67.20
55785;DHT22;41709;52.536;5.688;2023-05-29T09:47:16;13.40;66.70
55785;DHT22;41709;52.536;5.688;2023-05-29T09:49:42;13.50;66.80
55785;DHT22;41709;52.536;5.688;2023-05-29T09:52:11;13.60;66.40
55785;DHT22;41709;52.536;5.688;2023-05-29T09:54:39;13.70;66.50
55785;DHT22;41709;52.536;5.688;2023-05-29T09:57:07;13.70;66.60
55785;DHT22;41709;52.536;5.688;2023-05-29T09:59:35;13.80;67.60
55785;DHT22;41709;52.536;5.688;2023-05-29T10:02:03;13.80;66.90
55785;DHT22;41709;52.536;5.688;2023-05-29T10:04:32;13.80;66.40
55785;DHT22;41709;52.536;5.688;2023-05-29T10:07:01;13.80;65.60
55785;DHT22;41709;52.536;5.688;2023-05-29T10:09:29;13.90;65.50
55785;DHT22;41709;52.536;5.688;2023-05-29T10:11:56;14.00;64.80
55785;DHT22;41709;52.536;5.688;2023-05-29T10:14:25;14.00;64.90
55785;DHT22;41709;52.536;5.688;2023-05-29T10:16:54;14.00;65.30
55785;DHT22;41709;52.536;5.688;2023-05-29T10:19:27;14.10;63.70
55785;DHT22;41709;52.536;5.688;2023-05-29T10:21:54;14.00;63.80
55785;DHT22;41709;52.536;5.688;2023-05-29T10:24:21;14.10;64.10
55785;DHT22;41709;52.536;5.688;2023-05-29T10:26:49;14.20;64.30
55785;DHT22;41709;52.536;5.688;2023-05-29T10:29:43;14.20;64.30
55785;DHT22;41709;52.536;5.688;2023-05-29T10:35:38;14.10;64.30
55785;DHT22;41709;52.536;5.688;2023-05-29T10:38:12;14.20;64.70
55785;DHT22;41709;52.536;5.688;2023-05-29T10:40:39;14.30;64.10
55785;DHT22;41709;52.536;5.688;2023-05-29T10:43:04;14.40;61.80
55785;DHT22;41709;52.536;5.688;2023-05-29T10:50:47;14.40;63.90
55785;DHT22;41709;52.536;5.688;2023-05-29T10:53:17;14.40;63.40
55785;DHT22;41709;52.536;5.688;2023-05-29T10:55:43;14.50;64.30
55785;DHT22;41709;52.536;5.688;2023-05-29T10:58:18;14.60;64.00
55785;DHT22;41709;52.536;5.688;2023-05-29T11:00:45;14.60;64.30
55785;DHT22;41709;52.536;5.688;2023-05-29T11:03:21;14.60;63.50
55785;DHT22;41709;52.536;5.688;2023-05-29T11:06:07;14.60;64.70
55785;DHT22;41709;52.536;5.688;2023-05-29T11:08:47;14.50;63.80
55785;DHT22;41709;52.536;5.688;2023-05-29T11:11:14;14.60;64.30
55785;DHT22;41709;52.536;5.688;2023-05-29T11:13:40;14.60;64.20
55785;DHT22;41709;52.536;5.688;2023-05-29T11:19:04;14.60;65.00
55785;DHT22;41709;52.536;5.688;2023-05-29T11:21:41;14.60;64.30
55785;DHT22;41709;52.536;5.688;2023-05-29T11:26:51;14.70;62.80
55785;DHT22;41709;52.536;5.688;2023-05-29T11:29:24;14.60;63.60
55785;DHT22;41709;52.536;5.688;2023-05-29T11:32:02;14.50;64.30
55785;DHT22;41709;52.536;5.688;2023-05-29T11:34:29;14.50;63.60
55785;DHT22;41709;52.536;5.688;2023-05-29T11:36:57;14.60;62.50
55785;DHT22;41709;52.536;5.688;2023-05-29T11:39:23;14.60;63.00
55785;DHT22;41709;52.536;5.688;2023-05-29T11:41:52;14.60;62.70
55785;DHT22;41709;52.536;5.688;2023-05-29T11:44:23;14.50;63.10
55785;DHT22;41709;52.536;5.688;2023-05-29T11:47:02;14.50;63.10
55785;DHT22;41709;52.536;5.688;2023-05-29T11:49:29;14.50;63.80
55785;DHT22;41709;52.536;5.688;2023-05-29T11:52:14;14.60;63.50
55785;DHT22;41709;52.536;5.688;2023-05-29T11:54:39;14.70;63.60
55785;DHT22;41709;52.536;5.688;2023-05-29T11:57:20;14.80;61.90
55785;DHT22;41709;52.536;5.688;2023-05-29T11:59:46;14.90;62.50
55785;DHT22;41709;52.536;5.688;2023-05-29T12:02:12;14.90;61.50
55785;DHT22;41709;52.536;5.688;2023-05-29T12:04:38;14.90;61.70
55785;DHT22;41709;52.536;5.688;2023-05-29T12:07:19;14.90;62.00
55785;DHT22;41709;52.536;5.688;2023-05-29T12:09:45;14.90;62.00
55785;DHT22;41709;52.536;5.688;2023-05-29T12:12:10;15.10;62.40
55785;DHT22;41709;52.536;5.688;2023-05-29T12:14:36;15.00;62.10
55785;DHT22;41709;52.536;5.688;2023-05-29T12:17:01;15.00;61.60
55785;DHT22;41709;52.536;5.688;2023-05-29T12:19:27;15.10;61.00
55785;DHT22;41709;52.536;5.688;2023-05-29T12:21:53;15.00;60.90
55785;DHT22;41709;52.536;5.688;2023-05-29T12:24:19;15.00;61.80
55785;DHT22;41709;52.536;5.688;2023-05-29T12:26:45;15.10;62.00
55785;DHT22;41709;52.536;5.688;2023-05-29T12:29:12;15.10;60.40
55785;DHT22;41709;52.536;5.688;2023-05-29T12:31:38;15.20;60.20
55785;DHT22;41709;52.536;5.688;2023-05-29T12:34:08;15.20;59.40
55785;DHT22;41709;52.536;5.688;2023-05-29T12:36:35;15.30;59.20
55785;DHT22;41709;52.536;5.688;2023-05-29T12:39:06;15.20;60.40
55785;DHT22;41709;52.536;5.688;2023-05-29T12:41:34;15.20;59.20
55785;DHT22;41709;52.536;5.688;2023-05-29T12:44:02;15.20;60.40
55785;DHT22;41709;52.536;5.688;2023-05-29T12:46:35;15.20;60.00
55785;DHT22;41709;52.536;5.688;2023-05-29T12:49:12;15.20;59.90
55785;DHT22;41709;52.536;5.688;2023-05-29T12:51:44;15.40;59.90
55785;DHT22;41709;52.536;5.688;2023-05-29T12:54:11;15.30;60.40
55785;DHT22;41709;52.536;5.688;2023-05-29T12:56:37;15.30;59.60
55785;DHT22;41709;52.536;5.688;2023-05-29T12:59:09;15.30;57.70
55785;DHT22;41709;52.536;5.688;2023-05-29T13:01:36;15.30;58.60
55785;DHT22;41709;52.536;5.688;2023-05-29T13:04:06;15.40;58.50
55785;DHT22;41709;52.536;5.688;2023-05-29T13:06:34;15.40;58.30
55785;DHT22;41709;52.536;5.688;2023-05-29T13:09:00;15.40;59.40
55785;DHT22;41709;52.536;5.688;2023-05-29T13:11:25;15.50;60.70
55785;DHT22;41709;52.536;5.688;2023-05-29T13:13:51;15.50;58.00
55785;DHT22;41709;52.536;5.688;2023-05-29T13:16:17;15.60;57.70
55785;DHT22;41709;52.536;5.688;2023-05-29T13:18:43;15.60;58.00
55785;DHT22;41709;52.536;5.688;2023-05-29T13:21:09;15.70;59.10
55785;DHT22;41709;52.536;5.688;2023-05-29T13:23:35;15.60;58.80
55785;DHT22;41709;52.536;5.688;2023-05-29T13:26:01;15.80;58.50
55785;DHT22;41709;52.536;5.688;2023-05-29T13:28:27;15.90;58.90
55785;DHT22;41709;52.536;5.688;2023-05-29T13:30:52;16.00;59.00
55785;DHT22;41709;52.536;5.688;2023-05-29T13:33:18;16.10;57.70
55785;DHT22;41709;52.536;5.688;2023-05-29T13:35:43;16.20;57.30
55785;DHT22;41709;52.536;5.688;2023-05-29T13:38:09;16.30;55.90
55785;DHT22;41709;52.536;5.688;2023-05-29T13:40:35;16.20;56.90
55785;DHT22;41709;52.536;5.688;2023-05-29T13:43:01;16.30;56.70
55785;DHT22;41709;52.536;5.688;2023-05-29T13:45:26;16.30;55.40
55785;DHT22;41709;52.536;5.688;2023-05-29T13:47:54;16.50;55.50
55785;DHT22;41709;52.536;5.688;2023-05-29T13:50:20;16.50;54.20
55785;DHT22;41709;52.536;5.688;2023-05-29T13:52:47;16.60;54.10
55785;DHT22;41709;52.536;5.688;2023-05-29T13:55:12;16.70;55.40
55785;DHT22;41709;52.536;5.688;2023-05-29T13:57:38;16.70;53.80
55785;DHT22;41709;52.536;5.688;2023-05-29T14:00:05;16.70;54.80
55785;DHT22;41709;52.536;5.688;2023-05-29T14:02:31;16.70;53.60
55785;DHT22;41709;52.536;5.688;2023-05-29T14:04:57;16.80;53.90
55785;DHT22;41709;52.536;5.688;2023-05-29T14:07:22;16.90;53.10
55785;DHT22;41709;52.536;5.688;2023-05-29T14:09:48;16.80;52.80
55785;DHT22;41709;52.536;5.688;2023-05-29T14:12:13;16.80;54.20
55785;DHT22;41709;52.536;5.688;2023-05-29T14:14:39;16.80;54.20
55785;DHT22;41709;52.536;5.688;2023-05-29T14:17:05;17.00;54.90
55785;DHT22;41709;52.536;5.688;2023-05-29T14:19:30;16.90;53.50
55785;DHT22;41709;52.536;5.688;2023-05-29T14:21:56;16.90;54.40
55785;DHT22;41709;52.536;5.688;2023-05-29T14:24:22;16.90;55.20
55785;DHT22;41709;52.536;5.688;2023-05-29T14:26:47;17.00;53.70
55785;DHT22;41709;52.536;5.688;2023-05-29T14:29:13;17.00;52.80
55785;DHT22;41709;52.536;5.688;2023-05-29T14:31:43;17.00;53.30
55785;DHT22;41709;52.536;5.688;2023-05-29T14:34:09;17.00;54.60
55785;DHT22;41709;52.536;5.688;2023-05-29T14:36:35;17.20;52.70
55785;DHT22;41709;52.536;5.688;2023-05-29T14:39:03;17.10;51.80
55785;DHT22;41709;52.536;5.688;2023-05-29T14:41:28;17.10;51.10
55785;DHT22;41709;52.536;5.688;2023-05-29T14:43:54;17.00;52.50
55785;DHT22;41709;52.536;5.688;2023-05-29T14:46:24;16.90;53.70
55785;DHT22;41709;52.536;5.688;2023-05-29T14:48:50;16.90;53.90
55785;DHT22;41709;52.536;5.688;2023-05-29T14:51:15;16.90;53.70
55785;DHT22;41709;52.536;5.688;2023-05-29T14:53:41;16.90;52.90
55785;DHT22;41709;52.536;5.688;2023-05-29T14:56:07;16.90;53.00
55785;DHT22;41709;52.536;5.688;2023-05-29T14:58:32;16.90;53.60
55785;DHT22;41709;52.536;5.688;2023-05-29T15:00:58;17.00;52.60
55785;DHT22;41709;52.536;5.688;2023-05-29T15:03:23;17.00;53.50
55785;DHT22;41709;52.536;5.688;2023-05-29T15:05:52;17.10;53.00
55785;DHT22;41709;52.536;5.688;2023-05-29T15:08:18;17.20;51.80
55785;DHT22;41709;52.536;5.688;2023-05-29T15:10:44;17.20;52.70
55785;DHT22;41709;52.536;5.688;2023-05-29T15:13:09;17.10;52.40
55785;DHT22;41709;52.536;5.688;2023-05-29T15:15:35;17.20;52.20
55785;DHT22;41709;52.536;5.688;2023-05-29T15:18:00;17.30;52.70
55785;DHT22;41709;52.536;5.688;2023-05-29T15:20:27;17.30;52.20
55785;DHT22;41709;52.536;5.688;2023-05-29T15:22:53;17.40;52.30
55785;DHT22;41709;52.536;5.688;2023-05-29T15:25:20;17.40;51.10
55785;DHT22;41709;52.536;5.688;2023-05-29T15:27:46;17.40;50.80
55785;DHT22;41709;52.536;5.688;2023-05-29T15:30:19;17.40;50.70
55785;DHT22;41709;52.536;5.688;2023-05-29T15:32:45;17.30;51.10
55785;DHT22;41709;52.536;5.688;2023-05-29T15:35:12;17.20;51.20
55785;DHT22;41709;52.536;5.688;2023-05-29T15:37:38;17.10;51.40
55785;DHT22;41709;52.536;5.688;2023-05-29T15:40:05;17.00;52.30
55785;DHT22;41709;52.536;5.688;2023-05-29T15:42:31;17.00;50.30
55785;DHT22;41709;52.536;5.688;2023-05-29T15:44:57;17.00;52.00
55785;DHT22;41709;52.536;5.688;2023-05-29T15:47:22;17.10;51.80
55785;DHT22;41709;52.536;5.688;2023-05-29T15:49:49;17.00;49.90
55785;DHT22;41709;52.536;5.688;2023-05-29T15:52:14;17.10;51.30
55785;DHT22;41709;52.536;5.688;2023-05-29T15:54:40;16.80;51.10
55785;DHT22;41709;52.536;5.688;2023-05-29T15:57:05;16.80;51.70
55785;DHT22;41709;52.536;5.688;2023-05-29T15:59:32;16.70;51.20